createdAt,value
2019-05-16T00:00:31.975Z,6.21
2019-05-16T00:01:31.959Z,6.14
2019-05-16T00:02:31.944Z,6.18
2019-05-16T00:03:31.930Z,6.22
2019-05-16T00:04:31.914Z,6.28
2019-05-16T00:05:31.893Z,6.25
2019-05-16T00:06:31.877Z,6.37
2019-05-16T00:07:31.862Z,6.41
2019-05-16T00:08:31.851Z,6.34
2019-05-16T00:09:31.834Z,6.30
2019-05-16T00:10:31.818Z,6.30
2019-05-16T00:11:31.800Z,6.34
2019-05-16T00:12:31.786Z,6.27
2019-05-16T00:13:31.771Z,6.25
2019-05-16T00:14:31.754Z,6.28
2019-05-16T00:15:31.736Z,6.27
2019-05-16T00:16:31.720Z,6.25
2019-05-16T00:17:31.703Z,6.17
2019-05-16T00:18:31.685Z,6.14
2019-05-16T00:19:31.673Z,6.12
2019-05-16T00:20:31.663Z,6.18
2019-05-16T00:21:31.647Z,6.15
2019-05-16T00:22:31.635Z,6.14
2019-05-16T00:23:31.607Z,6.14
2019-05-16T00:24:31.593Z,6.18
2019-05-16T00:25:31.578Z,6.14
2019-05-16T00:26:31.560Z,6.17
2019-05-16T00:27:31.538Z,6.15
2019-05-16T00:28:31.528Z,6.12
2019-05-16T00:29:31.514Z,6.17
2019-05-16T00:30:31.497Z,6.21
2019-05-16T00:31:31.481Z,6.12
2019-05-16T00:32:31.464Z,6.06
2019-05-16T00:33:31.451Z,6.12
2019-05-16T00:34:31.429Z,6.08
2019-05-16T00:35:31.417Z,6.11
2019-05-16T00:36:31.403Z,6.08
2019-05-16T00:37:31.381Z,6.17
2019-05-16T00:38:31.370Z,6.18
2019-05-16T00:39:31.350Z,6.12
2019-05-16T00:40:31.337Z,6.15
2019-05-16T00:41:31.321Z,6.11
2019-05-16T00:42:31.302Z,6.12
2019-05-16T00:43:31.290Z,5.97
2019-05-16T00:44:31.271Z,5.94
2019-05-16T00:45:31.258Z,5.94
2019-05-16T00:46:31.249Z,6.01
2019-05-16T00:47:31.224Z,5.99
2019-05-16T00:48:31.215Z,5.97
2019-05-16T00:49:31.195Z,5.99
2019-05-16T00:50:31.183Z,6.03
2019-05-16T00:51:31.161Z,6.01
2019-05-16T00:52:31.145Z,5.93
2019-05-16T00:53:31.126Z,5.91
2019-05-16T00:54:31.115Z,5.97
2019-05-16T00:55:31.095Z,5.93
2019-05-16T00:56:31.083Z,5.94
2019-05-16T00:57:31.064Z,5.91
2019-05-16T00:58:31.048Z,5.90
2019-05-16T00:59:31.034Z,5.90
2019-05-16T01:00:31.020Z,5.91
2019-05-16T01:01:31.002Z,6.01
2019-05-16T01:02:30.984Z,5.93
2019-05-16T01:03:30.970Z,5.96
2019-05-16T01:04:30.960Z,6.01
2019-05-16T01:05:30.947Z,5.91
2019-05-16T01:06:30.925Z,5.94
2019-05-16T01:07:30.905Z,5.90
2019-05-16T01:08:30.889Z,5.89
2019-05-16T01:09:30.877Z,5.90
2019-05-16T01:10:30.857Z,5.82
2019-05-16T01:11:30.843Z,5.81
2019-05-16T01:12:30.823Z,5.85
2019-05-16T01:13:30.811Z,5.85
2019-05-16T01:14:30.794Z,5.85
2019-05-16T01:15:30.776Z,5.76
2019-05-16T01:16:30.766Z,5.68
2019-05-16T01:17:30.743Z,5.67
2019-05-16T01:18:30.731Z,5.61
2019-05-16T01:19:30.715Z,5.65
2019-05-16T01:20:30.695Z,5.63
2019-05-16T01:21:30.678Z,5.63
2019-05-16T01:22:30.676Z,5.61
2019-05-16T01:23:30.654Z,5.60
2019-05-16T01:24:30.639Z,5.60
2019-05-16T01:25:30.617Z,5.53
2019-05-16T01:26:30.602Z,5.63
2019-05-16T01:27:30.586Z,5.56
2019-05-16T01:28:30.569Z,5.54
2019-05-16T01:29:30.558Z,5.49
2019-05-16T01:30:30.535Z,5.49
2019-05-16T01:31:30.533Z,5.40
2019-05-16T01:32:32.177Z,5.48
2019-05-16T01:33:30.481Z,5.43
2019-05-16T01:34:30.469Z,5.45
2019-05-16T01:35:30.457Z,5.46
2019-05-16T01:36:36.845Z,5.38
2019-05-16T01:37:30.424Z,5.36
2019-05-16T01:38:30.410Z,5.33
2019-05-16T01:39:30.391Z,5.25
2019-05-16T01:40:30.378Z,5.36
2019-05-16T01:41:30.368Z,5.25
2019-05-16T01:42:30.344Z,5.24
2019-05-16T01:43:30.324Z,5.21
2019-05-16T01:44:30.314Z,5.12
2019-05-16T01:45:30.291Z,4.94
2019-05-16T01:46:30.289Z,4.92
2019-05-16T01:47:30.262Z,4.85
2019-05-16T01:48:30.241Z,4.97
2019-05-16T01:49:30.226Z,4.91
2019-05-16T01:50:30.211Z,4.91
2019-05-16T01:51:30.196Z,4.96
2019-05-16T01:52:30.183Z,4.91
2019-05-16T01:53:30.167Z,4.94
2019-05-16T01:54:30.154Z,4.92
2019-05-16T01:55:30.131Z,4.92
2019-05-16T01:56:30.111Z,4.85
2019-05-16T01:57:30.102Z,4.89
2019-05-16T01:58:30.079Z,4.78
2019-05-16T01:59:30.061Z,4.78
2019-05-16T02:00:37.202Z,4.80
2019-05-16T02:01:30.039Z,4.75
2019-05-16T02:02:30.012Z,4.72
2019-05-16T02:03:30.002Z,4.66
2019-05-16T02:04:29.979Z,4.62
2019-05-16T02:05:29.966Z,4.50
2019-05-16T02:06:29.952Z,4.50
2019-05-16T02:07:29.934Z,4.32
2019-05-16T02:08:29.910Z,4.18
2019-05-16T02:09:29.901Z,4.16
2019-05-16T02:10:29.881Z,4.08
2019-05-16T02:11:29.863Z,4.12
2019-05-16T02:12:29.849Z,4.08
2019-05-16T02:13:29.837Z,4.09
2019-05-16T02:14:29.816Z,4.08
2019-05-16T02:15:29.801Z,4.06
2019-05-16T02:16:29.783Z,4.11
2019-05-16T02:17:29.765Z,4.15
2019-05-16T02:18:29.752Z,4.20
2019-05-16T02:19:29.735Z,4.23
2019-05-16T02:20:29.722Z,4.15
2019-05-16T02:21:29.701Z,4.11
2019-05-16T02:22:29.683Z,4.09
2019-05-16T02:23:29.665Z,4.08
2019-05-16T02:24:29.643Z,4.05
2019-05-16T02:25:29.635Z,4.06
2019-05-16T02:26:29.620Z,4.09
2019-05-16T02:27:29.591Z,3.98
2019-05-16T02:28:33.663Z,4.02
2019-05-16T02:29:29.922Z,3.97
2019-05-16T02:30:31.527Z,3.97
2019-05-16T02:31:31.350Z,3.98
2019-05-16T02:32:31.267Z,3.94
2019-05-16T02:33:31.612Z,3.93
2019-05-16T02:34:30.738Z,3.96
2019-05-16T02:35:31.101Z,3.94
2019-05-16T02:36:31.422Z,4.02
2019-05-16T02:37:33.462Z,4.05
2019-05-16T02:38:31.719Z,3.94
2019-05-16T02:39:30.480Z,3.97
2019-05-16T02:40:31.314Z,3.96
2019-05-16T02:41:31.164Z,4.00
2019-05-16T02:42:31.040Z,3.96
2019-05-16T02:43:31.248Z,3.94
2019-05-16T02:44:31.752Z,3.98
2019-05-16T02:45:32.402Z,3.98
2019-05-16T02:46:30.844Z,4.00
2019-05-16T02:47:30.905Z,4.04
2019-05-16T02:48:31.779Z,4.09
2019-05-16T02:49:30.681Z,4.11
2019-05-16T02:50:31.739Z,4.15
2019-05-16T02:51:31.479Z,4.15
2019-05-16T02:52:31.772Z,4.16
2019-05-16T02:53:30.936Z,4.22
2019-05-16T02:54:31.661Z,4.30
2019-05-16T02:55:30.817Z,4.27
2019-05-16T02:56:31.764Z,4.16
2019-05-16T02:57:31.572Z,4.06
2019-05-16T02:58:30.762Z,4.09
2019-05-16T02:59:30.766Z,3.94
2019-05-16T03:00:30.900Z,3.93
2019-05-16T03:01:31.744Z,3.97
2019-05-16T03:02:31.173Z,3.94
2019-05-16T03:03:31.672Z,3.83
2019-05-16T03:04:30.581Z,3.84
2019-05-16T03:05:30.574Z,3.76
2019-05-16T03:06:31.819Z,3.75
2019-05-16T03:07:37.592Z,3.72
2019-05-16T03:08:31.883Z,3.76
2019-05-16T03:09:30.443Z,3.61
2019-05-16T03:10:31.116Z,3.65
2019-05-16T03:11:31.446Z,3.58
2019-05-16T03:12:31.016Z,3.76
2019-05-16T03:13:31.129Z,3.73
2019-05-16T03:14:31.530Z,3.79
2019-05-16T03:15:30.888Z,3.84
2019-05-16T03:16:31.639Z,3.79
2019-05-16T03:17:31.633Z,3.78
2019-05-16T03:18:31.008Z,3.69
2019-05-16T03:19:31.184Z,3.65
2019-05-16T03:20:31.314Z,3.58
2019-05-16T03:21:30.873Z,3.66
2019-05-16T03:22:31.361Z,3.61
2019-05-16T03:23:30.798Z,3.60
2019-05-16T03:24:31.015Z,3.60
2019-05-16T03:25:31.074Z,3.62
2019-05-16T03:26:31.292Z,3.66
2019-05-16T03:27:30.634Z,3.61
2019-05-16T03:28:30.724Z,3.72
2019-05-16T03:29:30.904Z,3.57
2019-05-16T03:30:34.209Z,3.65
2019-05-16T03:31:33.655Z,3.57
2019-05-16T03:32:33.336Z,3.50
2019-05-16T03:33:35.062Z,3.40
2019-05-16T03:34:33.872Z,3.42
2019-05-16T03:35:33.400Z,3.33
2019-05-16T03:36:33.994Z,3.36
2019-05-16T03:37:30.799Z,3.32
2019-05-16T03:38:30.882Z,3.28
2019-05-16T03:39:31.177Z,3.24
2019-05-16T03:40:31.405Z,3.24
2019-05-16T03:41:30.901Z,3.24
2019-05-16T03:42:30.852Z,3.33
2019-05-16T03:43:30.993Z,3.24
2019-05-16T03:44:31.485Z,3.32
2019-05-16T03:45:31.479Z,3.23
2019-05-16T03:46:30.921Z,3.39
2019-05-16T03:47:31.058Z,3.43
2019-05-16T03:48:31.265Z,3.47
2019-05-16T03:49:31.239Z,3.47
2019-05-16T03:50:30.672Z,3.40
2019-05-16T03:51:30.684Z,3.50
2019-05-16T03:52:30.805Z,3.48
2019-05-16T03:53:31.456Z,3.50
2019-05-16T03:54:31.162Z,3.55
2019-05-16T03:55:28.088Z,3.60
2019-05-16T03:56:30.733Z,3.62
2019-05-16T03:57:30.717Z,3.75
2019-05-16T03:58:30.776Z,3.75
2019-05-16T03:59:28.031Z,3.78
2019-05-16T04:00:31.458Z,3.70
2019-05-16T04:01:31.098Z,3.72
2019-05-16T04:02:30.688Z,3.75
2019-05-16T04:03:30.048Z,3.65
2019-05-16T04:04:30.806Z,3.68
2019-05-16T04:05:27.923Z,3.58
2019-05-16T04:06:30.974Z,3.55
2019-05-16T04:07:31.388Z,3.52
2019-05-16T04:08:30.730Z,3.62
2019-05-16T04:09:27.847Z,3.61
2019-05-16T04:10:30.699Z,3.58
2019-05-16T04:11:27.826Z,3.60
2019-05-16T04:12:30.663Z,3.43
2019-05-16T04:13:27.786Z,3.47
2019-05-16T04:14:30.706Z,3.45
2019-05-16T04:15:30.935Z,3.48
2019-05-16T04:16:27.735Z,3.43
2019-05-16T04:17:27.712Z,3.43
2019-05-16T04:18:27.695Z,3.45
2019-05-16T04:19:27.678Z,3.54
2019-05-16T04:20:30.305Z,3.66
2019-05-16T04:21:31.906Z,3.72
2019-05-16T04:22:27.628Z,3.79
2019-05-16T04:23:30.991Z,3.80
2019-05-16T04:24:27.596Z,3.87
2019-05-16T04:25:30.903Z,3.97
2019-05-16T04:26:30.605Z,3.97
2019-05-16T04:27:30.684Z,3.94
2019-05-16T04:28:27.522Z,3.96
2019-05-16T04:29:27.502Z,4.09
2019-05-16T04:30:31.030Z,3.98
2019-05-16T04:31:30.559Z,3.94
2019-05-16T04:32:27.449Z,3.98
2019-05-16T04:33:30.607Z,4.04
2019-05-16T04:34:27.414Z,3.93
2019-05-16T04:35:27.401Z,3.94
2019-05-16T04:36:27.385Z,3.86
2019-05-16T04:37:27.371Z,3.80
2019-05-16T04:38:40.240Z,3.87
2019-05-16T04:39:27.335Z,3.84
2019-05-16T04:40:27.313Z,3.87
2019-05-16T04:41:27.295Z,3.88
2019-05-16T04:42:27.281Z,3.91
2019-05-16T04:43:27.271Z,3.93
2019-05-16T04:44:30.665Z,3.98
2019-05-16T04:45:27.233Z,3.88
2019-05-16T04:46:27.215Z,3.98
2019-05-16T04:47:27.197Z,4.04
2019-05-16T04:48:27.183Z,4.06
2019-05-16T04:49:27.159Z,4.08
2019-05-16T04:50:27.146Z,3.94
2019-05-16T04:51:27.133Z,3.98
2019-05-16T04:52:27.119Z,3.83
2019-05-16T04:53:27.095Z,3.98
2019-05-16T04:54:27.067Z,3.84
2019-05-16T04:55:27.053Z,3.84
2019-05-16T04:56:27.048Z,3.94
2019-05-16T04:57:27.028Z,3.93
2019-05-16T04:58:27.005Z,3.97
2019-05-16T04:59:26.988Z,3.87
2019-05-16T05:00:26.973Z,3.91
2019-05-16T05:01:26.952Z,3.86
2019-05-16T05:02:26.935Z,3.84
2019-05-16T05:03:26.915Z,3.75
2019-05-16T05:04:26.901Z,3.83
2019-05-16T05:05:26.888Z,3.79
2019-05-16T05:06:26.873Z,3.73
2019-05-16T05:07:26.850Z,3.57
2019-05-16T05:08:26.832Z,3.57
2019-05-16T05:09:26.827Z,3.55
2019-05-16T05:10:26.801Z,3.52
2019-05-16T05:11:26.781Z,3.42
2019-05-16T05:12:26.765Z,3.47
2019-05-16T05:13:26.745Z,3.48
2019-05-16T05:14:26.735Z,3.54
2019-05-16T05:15:26.715Z,3.50
2019-05-16T05:16:26.701Z,3.43
2019-05-16T05:17:26.686Z,3.62
2019-05-16T05:18:26.654Z,3.52
2019-05-16T05:19:26.639Z,3.61
2019-05-16T05:20:26.622Z,3.52
2019-05-16T05:21:26.616Z,3.60
2019-05-16T05:22:26.589Z,3.55
2019-05-16T05:23:26.581Z,3.66
2019-05-16T05:24:26.554Z,3.60
2019-05-16T05:25:26.568Z,3.55
2019-05-16T05:26:26.522Z,3.60
2019-05-16T05:27:26.504Z,3.60
2019-05-16T05:28:26.483Z,3.61
2019-05-16T05:29:26.468Z,3.72
2019-05-16T05:30:26.452Z,3.61
2019-05-16T05:31:26.438Z,3.72
2019-05-16T05:32:26.412Z,3.69
2019-05-16T05:33:26.405Z,3.60
2019-05-16T05:34:26.382Z,3.62
2019-05-16T05:35:26.368Z,3.72
2019-05-16T05:36:26.345Z,3.73
2019-05-16T05:37:26.333Z,3.60
2019-05-16T05:38:26.312Z,3.70
2019-05-16T05:39:26.299Z,3.72
2019-05-16T05:40:26.278Z,3.69
2019-05-16T05:41:26.258Z,3.75
2019-05-16T05:42:26.246Z,3.76
2019-05-16T05:43:26.228Z,3.86
2019-05-16T05:44:26.208Z,3.86
2019-05-16T05:45:26.195Z,3.93
2019-05-16T05:46:26.175Z,3.86
2019-05-16T05:47:26.161Z,3.98
2019-05-16T05:48:26.146Z,3.97
2019-05-16T05:49:26.126Z,3.97
2019-05-16T05:50:26.111Z,3.87
2019-05-16T05:51:26.083Z,3.98
2019-05-16T05:52:26.073Z,3.88
2019-05-16T05:53:26.054Z,3.94
2019-05-16T05:54:26.038Z,3.93
2019-05-16T05:55:26.021Z,3.94
2019-05-16T05:56:25.998Z,3.93
2019-05-16T05:57:25.982Z,4.00
2019-05-16T05:58:25.966Z,4.02
2019-05-16T05:59:25.949Z,3.98
2019-05-16T06:00:25.940Z,4.05
2019-05-16T06:01:25.916Z,4.12
2019-05-16T06:02:25.900Z,4.12
2019-05-16T06:03:25.888Z,4.18
2019-05-16T06:04:25.865Z,4.24
2019-05-16T06:05:25.849Z,4.37
2019-05-16T06:06:25.829Z,4.41
2019-05-16T06:07:25.814Z,4.44
2019-05-16T06:08:25.799Z,4.58
2019-05-16T06:09:29.332Z,4.77
2019-05-16T06:10:25.761Z,4.94
2019-05-16T06:11:25.742Z,5.03
2019-05-16T06:12:25.721Z,5.07
2019-05-16T06:13:25.710Z,5.24
2019-05-16T06:14:25.691Z,5.27
2019-05-16T06:15:25.677Z,5.45
2019-05-16T06:16:25.663Z,5.54
2019-05-16T06:17:25.642Z,5.64
2019-05-16T06:18:25.628Z,5.78
2019-05-16T06:19:25.604Z,5.76
2019-05-16T06:20:25.596Z,5.96
2019-05-16T06:21:25.572Z,6.03
2019-05-16T06:22:25.560Z,6.12
2019-05-16T06:23:25.550Z,6.21
2019-05-16T06:24:25.525Z,6.33
2019-05-16T06:25:25.510Z,6.43
2019-05-16T06:26:25.493Z,6.43
2019-05-16T06:27:25.484Z,6.51
2019-05-16T06:28:25.461Z,6.59
2019-05-16T06:29:25.445Z,6.74
2019-05-16T06:30:25.452Z,6.79
2019-05-16T06:31:25.414Z,6.87
2019-05-16T06:32:25.395Z,6.92
2019-05-16T06:33:25.381Z,6.97
2019-05-16T06:34:25.360Z,6.97
2019-05-16T06:35:25.348Z,7.10
2019-05-16T06:36:25.332Z,7.21
2019-05-16T06:37:25.315Z,7.15
2019-05-16T06:38:25.299Z,7.27
2019-05-16T06:39:38.519Z,7.32
2019-05-16T06:40:25.269Z,7.34
2019-05-16T06:41:25.252Z,7.46
2019-05-16T06:42:25.236Z,7.53
2019-05-16T06:43:25.218Z,7.49
2019-05-16T06:44:25.200Z,7.60
2019-05-16T06:45:25.184Z,7.67
2019-05-16T06:46:25.170Z,7.77
2019-05-16T06:47:25.156Z,7.82
2019-05-16T06:48:25.142Z,7.86
2019-05-16T06:49:25.130Z,7.86
2019-05-16T06:50:25.110Z,7.92
2019-05-16T06:51:25.091Z,7.98
2019-05-16T06:52:25.079Z,8.05
2019-05-16T06:53:25.057Z,8.15
2019-05-16T06:54:25.045Z,8.11
2019-05-16T06:55:25.033Z,8.16
2019-05-16T06:56:25.015Z,8.16
2019-05-16T06:57:24.998Z,8.29
2019-05-16T06:58:24.980Z,8.23
2019-05-16T06:59:24.970Z,8.43
2019-05-16T07:00:24.951Z,8.38
2019-05-16T07:01:24.940Z,8.50
2019-05-16T07:02:29.872Z,8.59
2019-05-16T07:03:24.910Z,8.55
2019-05-16T07:04:24.888Z,8.62
2019-05-16T07:05:24.881Z,8.70
2019-05-16T07:06:47.662Z,8.76
2019-05-16T07:07:24.850Z,8.83
2019-05-16T07:08:24.837Z,8.74
2019-05-16T07:09:24.820Z,8.89
2019-05-16T07:10:24.801Z,8.87
2019-05-16T07:11:24.785Z,8.96
2019-05-16T07:12:24.771Z,8.95
2019-05-16T07:13:24.759Z,8.98
2019-05-16T07:14:28.182Z,9.02
2019-05-16T07:15:24.726Z,8.94
2019-05-16T07:16:24.710Z,9.05
2019-05-16T07:17:24.700Z,8.99
2019-05-16T07:18:24.676Z,8.96
2019-05-16T07:19:24.666Z,8.96
2019-05-16T07:20:24.650Z,8.96
2019-05-16T07:21:24.637Z,8.99
2019-05-16T07:22:24.628Z,9.08
2019-05-16T07:23:24.611Z,9.14
2019-05-16T07:24:24.594Z,9.21
2019-05-16T07:25:24.579Z,9.18
2019-05-16T07:26:24.567Z,9.23
2019-05-16T07:27:24.551Z,9.40
2019-05-16T07:28:24.541Z,9.38
2019-05-16T07:29:24.521Z,9.54
2019-05-16T07:30:24.506Z,9.61
2019-05-16T07:31:24.493Z,9.68
2019-05-16T07:32:24.476Z,9.72
2019-05-16T07:33:24.464Z,9.81
2019-05-16T07:34:24.466Z,9.83
2019-05-16T07:35:24.436Z,9.87
2019-05-16T07:36:24.418Z,9.93
2019-05-16T07:37:24.406Z,9.96
2019-05-16T07:38:24.391Z,10.05
2019-05-16T07:39:24.375Z,10.20
2019-05-16T07:40:26.930Z,9.89
2019-05-16T07:41:24.349Z,9.83
2019-05-16T07:42:24.338Z,9.93
2019-05-16T07:43:24.318Z,9.96
2019-05-16T07:44:24.303Z,9.89
2019-05-16T07:45:24.293Z,9.91
2019-05-16T07:46:24.275Z,9.94
2019-05-16T07:47:24.260Z,9.90
2019-05-16T07:48:24.251Z,9.90
2019-05-16T07:49:24.241Z,9.96
2019-05-16T07:50:24.221Z,9.93
2019-05-16T07:51:24.207Z,9.90
2019-05-16T07:52:24.195Z,10.02
2019-05-16T07:53:24.174Z,9.97
2019-05-16T07:54:24.165Z,10.15
2019-05-16T07:55:24.156Z,10.17
2019-05-16T07:56:24.135Z,10.15
2019-05-16T07:57:24.132Z,10.23
2019-05-16T07:58:24.108Z,10.42
2019-05-16T07:59:24.091Z,10.48
2019-05-16T08:00:45.717Z,10.56
2019-05-16T08:01:24.071Z,10.59
2019-05-16T08:02:24.049Z,10.47
2019-05-16T08:03:24.037Z,10.61
2019-05-16T08:04:24.023Z,10.59
2019-05-16T08:05:24.009Z,10.64
2019-05-16T08:06:23.998Z,10.70
2019-05-16T08:07:23.975Z,10.78
2019-05-16T08:08:24.715Z,10.73
2019-05-16T08:09:23.952Z,10.53
2019-05-16T08:10:36.876Z,10.63
2019-05-16T08:11:23.954Z,10.64
2019-05-16T08:12:26.468Z,10.55
2019-05-16T08:13:23.904Z,10.53
2019-05-16T08:14:23.885Z,10.52
2019-05-16T08:15:23.871Z,10.68
2019-05-16T08:16:23.857Z,10.56
2019-05-16T08:17:23.842Z,10.55
2019-05-16T08:18:23.829Z,10.59
2019-05-16T08:19:25.267Z,10.64
2019-05-16T08:20:23.804Z,10.71
2019-05-16T08:21:27.564Z,10.79
2019-05-16T08:22:23.776Z,10.85
2019-05-16T08:23:23.765Z,10.82
2019-05-16T08:24:23.762Z,10.88
2019-05-16T08:25:23.733Z,10.85
2019-05-16T08:26:23.719Z,10.92
2019-05-16T08:27:23.701Z,10.99
2019-05-16T08:28:23.689Z,11.10
2019-05-16T08:29:23.692Z,11.09
2019-05-16T08:30:23.673Z,11.28
2019-05-16T08:31:23.649Z,11.33
2019-05-16T08:32:23.631Z,11.36
2019-05-16T08:33:23.620Z,11.40
2019-05-16T08:34:23.611Z,11.52
2019-05-16T08:35:23.596Z,11.37
2019-05-16T08:36:23.582Z,11.37
2019-05-16T08:37:36.911Z,11.40
2019-05-16T08:38:23.560Z,11.49
2019-05-16T08:39:23.542Z,11.47
2019-05-16T08:40:23.532Z,11.43
2019-05-16T08:41:23.515Z,11.43
2019-05-16T08:42:23.503Z,11.54
2019-05-16T08:43:23.485Z,11.51
2019-05-16T08:44:23.471Z,11.58
2019-05-16T08:45:23.456Z,11.62
2019-05-16T08:46:23.450Z,11.67
2019-05-16T08:47:23.436Z,11.78
2019-05-16T08:48:23.658Z,11.90
2019-05-16T08:49:23.419Z,11.82
2019-05-16T08:50:23.391Z,11.90
2019-05-16T08:51:23.387Z,11.94
2019-05-16T08:52:23.458Z,11.88
2019-05-16T08:53:23.355Z,11.90
2019-05-16T08:54:23.339Z,11.82
2019-05-16T08:55:23.324Z,11.86
2019-05-16T08:56:23.313Z,11.78
2019-05-16T08:57:27.722Z,11.90
2019-05-16T08:58:23.288Z,11.98
2019-05-16T08:59:23.270Z,11.80
2019-05-16T09:00:23.256Z,11.90
2019-05-16T09:01:23.253Z,11.98
2019-05-16T09:03:23.222Z,11.96
2019-05-16T09:04:24.690Z,11.96
2019-05-16T09:05:23.247Z,12.04
2019-05-16T09:06:23.256Z,12.16
2019-05-16T09:07:23.229Z,12.02
2019-05-16T09:08:23.157Z,12.19
2019-05-16T09:09:39.122Z,12.13
2019-05-16T09:11:35.727Z,12.27
2019-05-16T09:12:23.101Z,12.16
2019-05-16T09:13:23.098Z,12.29
2019-05-16T09:14:23.076Z,12.29
2019-05-16T09:15:23.062Z,12.23
2019-05-16T09:16:23.047Z,12.35
2019-05-16T09:17:23.040Z,12.29
2019-05-16T09:18:23.026Z,12.41
2019-05-16T09:18:30.896Z,11.95
2019-05-16T09:19:23.009Z,12.32
2019-05-16T09:20:23.004Z,12.46
2019-05-16T09:21:22.984Z,12.47
2019-05-16T09:22:22.968Z,12.41
2019-05-16T09:23:22.958Z,12.34
2019-05-16T09:24:22.944Z,12.41
2019-05-16T09:25:22.934Z,12.56
2019-05-16T09:26:22.933Z,12.54
2019-05-16T09:27:22.907Z,12.50
2019-05-16T09:28:22.917Z,12.50
2019-05-16T09:29:22.887Z,12.47
2019-05-16T09:30:22.871Z,12.56
2019-05-16T09:31:22.859Z,12.60
2019-05-16T09:32:22.845Z,12.65
2019-05-16T09:33:22.838Z,12.79
2019-05-16T09:34:22.821Z,12.78
2019-05-16T09:35:22.820Z,12.86
2019-05-16T09:36:22.792Z,12.78
2019-05-16T09:37:22.780Z,12.83
2019-05-16T09:38:28.324Z,12.77
2019-05-16T09:39:22.760Z,12.78
2019-05-16T09:40:22.738Z,12.82
2019-05-16T09:41:22.734Z,12.87
2019-05-16T09:42:22.712Z,12.87
2019-05-16T09:43:22.696Z,12.83
2019-05-16T09:44:22.684Z,12.75
2019-05-16T09:45:22.677Z,12.74
2019-05-16T09:46:22.659Z,12.72
2019-05-16T09:47:22.649Z,12.65
2019-05-16T09:48:22.639Z,12.59
2019-05-16T09:49:28.760Z,12.59
2019-05-16T09:50:22.617Z,12.53
2019-05-16T09:51:22.594Z,12.49
2019-05-16T09:52:22.592Z,12.56
2019-05-16T09:53:22.573Z,12.67
2019-05-16T09:54:22.552Z,12.46
2019-05-16T09:55:22.559Z,12.56
2019-05-16T09:56:22.533Z,12.60
2019-05-16T09:57:22.523Z,12.77
2019-05-16T09:58:22.507Z,12.83
2019-05-16T09:59:22.495Z,12.90
2019-05-16T10:00:22.483Z,13.03
2019-05-16T10:01:22.476Z,12.97
2019-05-16T10:02:22.460Z,12.96
2019-05-16T10:03:22.778Z,13.08
2019-05-16T10:04:22.427Z,13.07
2019-05-16T10:05:22.415Z,13.20
2019-05-16T10:06:22.407Z,13.20
2019-05-16T10:07:22.415Z,13.17
2019-05-16T10:08:22.372Z,13.03
2019-05-16T10:09:22.363Z,13.19
2019-05-16T10:10:22.354Z,13.12
2019-05-16T10:11:22.352Z,13.15
2019-05-16T10:12:22.325Z,13.10
2019-05-16T10:13:22.313Z,13.14
2019-05-16T10:14:22.305Z,13.20
2019-05-16T10:15:22.289Z,13.25
2019-05-16T10:16:22.273Z,13.29
2019-05-16T10:17:22.264Z,13.32
2019-05-16T10:18:22.254Z,13.42
2019-05-16T10:19:22.236Z,13.49
2019-05-16T10:20:22.228Z,13.42
2019-05-16T10:21:22.213Z,13.48
2019-05-16T10:22:22.219Z,13.44
2019-05-16T10:23:22.189Z,13.57
2019-05-16T10:24:22.175Z,13.55
2019-05-16T10:25:22.164Z,13.64
2019-05-16T10:26:22.148Z,13.66
2019-05-16T10:27:22.129Z,13.66
2019-05-16T10:28:22.125Z,13.60
2019-05-16T10:29:22.111Z,13.60
2019-05-16T10:30:22.110Z,13.62
2019-05-16T10:31:22.090Z,13.63
2019-05-16T10:32:22.076Z,13.70
2019-05-16T10:33:22.068Z,13.63
2019-05-16T10:34:22.048Z,13.63
2019-05-16T10:35:22.040Z,13.71
2019-05-16T10:36:22.025Z,13.75
2019-05-16T10:37:22.010Z,13.77
2019-05-16T10:38:22.007Z,13.84
2019-05-16T10:39:21.988Z,13.78
2019-05-16T10:40:21.978Z,13.78
2019-05-16T10:41:21.965Z,13.82
2019-05-16T10:42:28.550Z,13.87
2019-05-16T10:43:21.937Z,13.88
2019-05-16T10:44:21.923Z,13.85
2019-05-16T10:45:21.920Z,13.89
2019-05-16T10:46:21.902Z,13.82
2019-05-16T10:47:21.890Z,13.87
2019-05-16T10:48:21.876Z,13.77
2019-05-16T10:49:36.509Z,13.66
2019-05-16T10:50:21.853Z,13.66
2019-05-16T10:51:23.896Z,13.60
2019-05-16T10:52:21.829Z,13.52
2019-05-16T10:53:43.053Z,13.55
2019-05-16T10:54:21.948Z,13.52
2019-05-16T10:55:21.901Z,13.45
2019-05-16T10:56:21.781Z,13.49
2019-05-16T10:57:21.863Z,13.44
2019-05-16T10:58:35.700Z,13.51
2019-05-16T11:00:42.453Z,13.57
2019-05-16T11:01:27.478Z,13.57
2019-05-16T11:02:21.729Z,13.48
2019-05-16T11:03:21.694Z,13.45
2019-05-16T11:04:29.269Z,13.23
2019-05-16T11:05:30.067Z,13.11
2019-05-16T11:06:25.867Z,12.97
2019-05-16T11:07:21.639Z,12.90
2019-05-16T11:08:21.637Z,12.82
2019-05-16T11:09:21.623Z,12.82
2019-05-16T11:10:21.615Z,12.83
2019-05-16T11:11:21.599Z,12.78
2019-05-16T11:12:21.672Z,12.74
2019-05-16T11:13:21.580Z,12.75
2019-05-16T11:14:21.558Z,12.77
2019-05-16T11:15:21.548Z,12.70
2019-05-16T11:16:21.534Z,12.77
2019-05-16T11:17:21.525Z,12.71
2019-05-16T11:18:21.508Z,12.65
2019-05-16T11:19:24.653Z,12.65
2019-05-16T11:20:21.569Z,12.60
2019-05-16T11:21:21.471Z,12.71
2019-05-16T11:22:21.465Z,12.62
2019-05-16T11:23:23.675Z,12.57
2019-05-16T11:24:21.446Z,12.70
2019-05-16T11:25:28.723Z,12.74
2019-05-16T11:26:21.415Z,12.86
2019-05-16T11:27:21.399Z,12.83
2019-05-16T11:28:21.405Z,12.89
2019-05-16T11:29:21.370Z,12.89
2019-05-16T11:30:21.406Z,13.03
2019-05-16T11:31:21.339Z,13.08
2019-05-16T11:32:21.330Z,13.11
2019-05-16T11:33:21.315Z,13.17
2019-05-16T11:34:21.307Z,13.30
2019-05-16T11:35:21.293Z,13.30
2019-05-16T11:36:21.280Z,13.38
2019-05-16T11:37:21.267Z,13.36
2019-05-16T11:38:21.252Z,13.38
2019-05-16T11:39:21.246Z,13.41
2019-05-16T11:40:21.224Z,13.38
2019-05-16T11:41:21.216Z,13.48
2019-05-16T11:42:21.210Z,13.60
2019-05-16T11:43:21.975Z,13.63
2019-05-16T11:44:21.175Z,13.63
2019-05-16T11:45:21.162Z,13.63
2019-05-16T11:46:21.157Z,13.67
2019-05-16T11:47:21.149Z,13.84
2019-05-16T11:48:24.932Z,13.69
2019-05-16T11:49:21.115Z,13.60
2019-05-16T11:50:21.104Z,13.69
2019-05-16T11:51:21.090Z,13.77
2019-05-16T11:52:21.076Z,13.67
2019-05-16T11:53:21.064Z,13.54
2019-05-16T11:54:21.050Z,13.60
2019-05-16T11:55:21.042Z,13.67
2019-05-16T11:56:21.027Z,13.62
2019-05-16T11:57:21.019Z,13.78
2019-05-16T11:58:21.015Z,13.79
2019-05-16T11:59:20.991Z,13.77
2019-05-16T12:00:20.982Z,13.66
2019-05-16T12:01:20.962Z,13.75
2019-05-16T12:02:20.954Z,13.60
2019-05-16T12:03:20.944Z,13.67
2019-05-16T12:04:20.932Z,13.60
2019-05-16T12:05:20.916Z,13.54
2019-05-16T12:06:20.909Z,13.49
2019-05-16T12:07:20.890Z,13.26
2019-05-16T12:08:20.884Z,13.14
2019-05-16T12:09:20.871Z,13.28
2019-05-16T12:10:20.857Z,13.22
2019-05-16T12:11:20.850Z,13.15
2019-05-16T12:12:21.115Z,13.17
2019-05-16T12:13:27.498Z,13.11
2019-05-16T12:14:20.806Z,13.30
2019-05-16T12:15:20.806Z,13.28
2019-05-16T12:16:20.779Z,13.25
2019-05-16T12:17:20.771Z,13.14
2019-05-16T12:18:20.763Z,13.11
2019-05-16T12:19:20.744Z,13.25
2019-05-16T12:20:20.732Z,13.36
2019-05-16T12:21:20.743Z,13.48
2019-05-16T12:22:20.706Z,13.49
2019-05-16T12:23:22.756Z,13.48
2019-05-16T12:24:31.726Z,13.49
2019-05-16T12:25:20.668Z,13.55
2019-05-16T12:26:20.685Z,13.63
2019-05-16T12:27:20.653Z,13.66
2019-05-16T12:28:20.634Z,13.64
2019-05-16T12:29:20.624Z,13.63
2019-05-16T12:30:20.607Z,13.64
2019-05-16T12:31:20.595Z,13.73
2019-05-16T12:32:20.583Z,13.77
2019-05-16T12:33:20.579Z,13.73
2019-05-16T12:34:20.560Z,13.84
2019-05-16T12:35:20.550Z,13.88
2019-05-16T12:36:20.539Z,13.85
2019-05-16T12:37:20.543Z,13.99
2019-05-16T12:38:20.511Z,14.04
2019-05-16T12:39:20.512Z,14.12
2019-05-16T12:40:20.488Z,14.14
2019-05-16T12:41:20.477Z,14.17
2019-05-16T12:42:20.459Z,14.25
2019-05-16T12:43:20.448Z,14.27
2019-05-16T12:44:20.439Z,14.20
2019-05-16T12:45:20.424Z,14.25
2019-05-16T12:46:20.408Z,14.17
2019-05-16T12:47:20.395Z,14.28
2019-05-16T12:48:20.696Z,14.25
2019-05-16T12:49:20.375Z,14.25
2019-05-16T12:50:20.360Z,14.29
2019-05-16T12:51:20.352Z,14.33
2019-05-16T12:52:20.351Z,14.27
2019-05-16T12:53:23.507Z,14.32
2019-05-16T12:54:20.317Z,14.42
2019-05-16T12:55:20.310Z,14.43
2019-05-16T12:56:20.304Z,14.52
2019-05-16T12:57:27.676Z,14.73
2019-05-16T12:58:26.037Z,14.80
2019-05-16T12:59:21.554Z,14.83
2019-05-16T13:00:20.246Z,14.84
2019-05-16T13:01:20.886Z,14.94
2019-05-16T13:02:21.830Z,14.89
2019-05-16T13:03:20.208Z,14.95
2019-05-16T13:04:20.200Z,14.92
2019-05-16T13:05:20.185Z,14.94
2019-05-16T13:06:20.179Z,14.91
2019-05-16T13:07:20.161Z,14.96
2019-05-16T13:08:20.157Z,14.92
2019-05-16T13:09:20.136Z,14.86